Terminal Aerodrome Forecast
Issued by NWS Wichita, KS

Home | Current Version | Previous Version | Graphics & Text | Print | Product List | Glossary On
Versions: 1 2 3 4 5 6 7 8 9 10 11 12 13
992
FTUS43 KICT 161724
TAFICT
TAF
KICT 161724Z 1618/1718 19018KT P6SM SKC
     FM170500 17011KT P6SM BKN100
     FM170600 17010KT P6SM VCSH BKN080
     FM171000 18007KT P6SM -RA OVC015
     FM171200 18007KT P6SM OVC010=

USA.gov is the U.S. government's official web portal to all federal, state and local government web resources and services.